Nearby METAR Reports

 

KMQY - Smyrna, Tennessee, USA
Distance from station: WNW 14mi, 22km
Updated: Tue, 22-Jan-2019 6:56pm CST
Overcast
Overcast
 Wind from SSE
Wind: SSE 13 mph , 20 km/h, Gust: 21 mph , 33 km/h
Temperature: 48°F , 9°C
Wind Chill: 43°F , 6°C
Dew Point: 34°F , 1°C
Humidity: 58%
Barometer: 30.23 inHg , 1023.7 hPa
Clouds: Overcast
Visibility: 10 miles , 16 km
Cloud details: Overcast 6000 ft
2019/01/23 00:56 KMQY 230056Z 15011G18KT 10SM OVC060 09/01 A3023 RMK AO2 SLP236 T00940006
KSYI - Shelbyville, Tennessee, USA
Distance from station: SSW 25mi, 40km
Updated: Tue, 22-Jan-2019 7:15pm CST
Overcast
Overcast
 Wind from SSE
Wind: SSE 15 mph , 24 km/h
Temperature: 46°F , 8°C
Wind Chill: 40°F , 4°C
Dew Point: 32°F , 0°C
Humidity: 57%
Barometer: 30.23 inHg , 1023.7 hPa
Clouds: Overcast
Visibility: 10 miles , 16 km
Cloud details: Overcast 6000 ft
2019/01/23 01:15 KSYI 230115Z AUTO 15013KT 10SM OVC060 08/M00 A3023 RMK A01
KBNA - Nashville, Tennessee, USA
Distance from station: NW 25mi, 41km
Updated: Tue, 22-Jan-2019 6:53pm CST
Overcast
Overcast
 Wind from SSE
Wind: SSE 18 mph , 30 km/h, Gust: 26 mph , 43 km/h
Temperature: 50°F , 10°C
Wind Chill: 44°F , 7°C
Dew Point: 30°F , -1°C
Humidity: 47%
Barometer: 30.20 inHg , 1022.7 hPa
Clouds: Overcast
Visibility: 10 miles , 16 km
Cloud details: Overcast 6000 ft
2019/01/23 00:53 KBNA 230053Z 15016G23KT 10SM OVC060 10/M01 A3020 RMK AO2 SLP230 T01001006
 
KRNC - Mcminnville, Tennessee, USA
Distance from station: ESE 30mi, 48km
Updated: Tue, 22-Jan-2019 7:15pm CST
Overcast
Overcast
 Wind from SSE
Wind: SSE 8 mph , 13 km/h, Gust: 14 mph , 22 km/h
Temperature: 45°F , 7°C
Wind Chill: 41°F , 5°C
Dew Point: 30°F , -1°C
Humidity: 57%
Barometer: 30.26 inHg , 1024.7 hPa
Clouds: Overcast
Visibility: 10 miles , 16 km
Cloud details: Overcast 5500 ft
2019/01/23 01:15 KRNC 230115Z AUTO 15007G12KT 10SM OVC055 07/M01 A3026 RMK A01
KM33 - Gallatin, Tennessee, USA
Distance from station: N 33mi, 54km
Updated: Wed, 23-May-2018 7:55pm CDT
NOT Current
Clear
Clear
 Wind from calm
Wind: Calm
Temperature: 79°F , 26°C
Dew Point: 66°F , 19°C
Humidity: 65%
Barometer: 30.10 inHg , 1019.3 hPa
Clouds: Clear
Visibility: 10 miles , 16 km
2018/05/24 00:55 KM33 240055Z AUTO 00000KT 10SM CLR 26/19 A3010 RMK A01
KTHA - Tullahoma, Tennessee, USA
Distance from station: S 36mi, 59km
Updated: Tue, 22-Jan-2019 7:15pm CST
Overcast
Overcast
 Wind from SSE
Wind: SSE 13 mph , 20 km/h, Gust: 22 mph , 35 km/h
Temperature: 45°F , 7°C
Wind Chill: 39°F , 4°C
Dew Point: 30°F , -1°C
Humidity: 57%
Barometer: 30.24 inHg , 1024 hPa
Clouds: Overcast
Visibility: 10 miles , 16 km
Cloud details: Overcast 5500 ft
2019/01/23 01:15 KTHA 230115Z AUTO 15011G19KT 10SM OVC055 07/M01 A3024 RMK A01
 
KJWN - Nashv/Jc Tune, Tennessee, USA
Distance from station: WNW 37mi, 60km
Updated: Tue, 22-Jan-2019 7:15pm CST
Overcast
Overcast
 Wind from SSE
Wind: SSE 13 mph , 20 km/h, Gust: 22 mph , 35 km/h
Temperature: 50°F , 10°C
Wind Chill: 45°F , 7°C
Dew Point: 34°F , 1°C
Humidity: 54%
Barometer: 30.18 inHg , 1022 hPa
Clouds: Overcast
Visibility: 10 miles , 16 km
Cloud details: Overcast 6000 ft
2019/01/23 01:15 KJWN 230115Z AUTO 16011G19KT 10SM OVC060 10/01 A3018 RMK A01
KSRB - Sparta, Tennessee, USA
Distance from station: ENE 45mi, 72km
Updated: Tue, 22-Jan-2019 7:15pm CST
Overcast
Overcast
 Wind from SSE
Wind: SSE 10 mph , 17 km/h, Gust: 22 mph , 35 km/h
Temperature: 45°F , 7°C
Wind Chill: 40°F , 4°C
Dew Point: 28°F , -2°C
Humidity: 53%
Barometer: 30.26 inHg , 1024.7 hPa
Clouds: Overcast
Visibility: 10 miles , 16 km
Cloud details: Overcast 6000 ft
2019/01/23 01:15 KSRB 230115Z AUTO 16009G19KT 10SM OVC060 07/M02 A3026 RMK A01
K1M5 - Portland, Tennessee, USA
Distance from station: NNW 49mi, 78km
Updated: Wed, 09-Jan-2019 1:25pm CST
NOT Current
Clear
Clear
 Wind from NNW
Wind: NNW 15 mph , 24 km/h, Gust: 23 mph , 37 km/h
Temperature: 41°F , 5°C
Wind Chill: 33°F , 1°C
Dew Point: 18°F , -8°C
Humidity: 39%
Barometer: 30.22 inHg , 1023.4 hPa
Clouds: Clear
Visibility: 10 miles , 16 km
2019/01/09 19:25 K1M5 091925Z AUTO 34013G20KT 10SM CLR 05/M08 A3022 RMK A01